LTFE/BJV METAR and TAF weather

Enter ICAO airport designator
Station Type Date Time Source
LTFE METAR 2019/08/25 13:50 UTC NOAA

LTFE 251350Z 20012KT 9999 FEW035 34/19 Q1007 NOSIG


Station Type Date Time Source
LTFE Decoded METAR 2019/08/25 13:50 UTC NOAA

Station name not available
Aug 25, 2019 - 09:50 AM EDT / 2019.08.25 1350 UTC
Wind: from the SSW (200 degrees) at 14 MPH (12 KT):0
Visibility: greater than 7 mile(s):0
Sky conditions: mostly clear
Temperature: 93 F (34 C)
Heat index: 95.9 F (35.5 C):1
Dew Point: 66 F (19 C)
Relative Humidity: 41%
Pressure (altimeter): 29.74 in. Hg (1007 hPa)
ob: LTFE 251350Z 20012KT 9999 FEW035 34/19 Q1007 NOSIG
cycle: 14

Station Type Date Time Source
LTFE TAF 2019/08/25 12:03 UTC NOAA

TAF LTFE 251040Z 2512/2612 26014KT 9999 FEW035
BECMG 2514/2517 VRB02KT CAVOK
BECMG 2608/2610 26014KT FEW035

Example: see airport list